Du har inga inställningar för hoppväder.nu

Hoppväder.nu

Senast uppdaterat 02:08

UTC-tid

2022-05-24 kl. 00:08


Sol och måne

Solen går upp 3:50 och går ner 23:06 (beräknade cirkatider)
Nästa fullmåne blir om 21 dagar (2022-06-14)

METAR

ESKM (Mora)
(1458 minuter sedan)
ESKM 232350Z AUTO 10004KT 9999 OVC072/// 11/10 Q1008=















TAF

ESKM (Mora)
ESKM





Kodnycklar till TAF och METAR






LHP

(Tallhed är område se41c i Delområde 1)

Prognos är inte uppdaterad






Preliminär prognos